Etretat — FIDP — position and weather

sailwx.info

Track history (hours):
 
Tides and Currents Weather Stations Pressure Air Temp Water Temp Dewpoint Dewpoint Depression Visibility Wind Speed Wind Dir Waves Ship Positions

Etretat

Last reported at 2017-Jan-18 03:33 UTC. Time now 2017-Jan-18 04:15 UTC.
Position N 49°58' W 000°27'.

Length 187 m; draft 6 m.

Type: Ship. MMSI: 228022900.

Date/timePositionNaut miles runAvg speedWind from/ knotsBaromVisibWave heightAir tempDewpointWater temp
2017-Jan-18 03:33N 49°58' W 000°27'3514.4
2017-Jan-18 01:07N 50°30' W 000°48'814.6
2017-Jan-18 00:33N 50°38' W 000°54'1312.7
2017-Jan-17 23:34N 50°48' W 001°07'1 1.1
2017-Jan-17 22:34N 50°49' W 001°06'0 0.0
2017-Jan-17 21:34N 50°49' W 001°06'6 6.4
2017-Jan-17 20:33N 50°43' W 001°01'2019.8
2017-Jan-17 19:32N 50°26' W 000°43'2020.7
2017-Jan-17 18:33N 50°08' W 000°30'2120.7
2017-Jan-17 17:33N 49°49' W 000°17'2121.1
2017-Jan-17 16:33N 49°31' E 000°01'4 4.5
2017-Jan-17 15:33N 49°29' E 000°07'0 0.0
2017-Jan-17 14:33N 49°29' E 000°07'0 0.0
2017-Jan-17 13:33N 49°29' E 000°07'0 0.0
2017-Jan-17 12:33N 49°29' E 000°07'0 0.0
2017-Jan-17 11:33N 49°29' E 000°07'0 0.0
2017-Jan-17 10:33N 49°29' E 000°07'0 0.0
2017-Jan-17 09:33N 49°29' E 000°07'0 0.0
2017-Jan-17 08:33N 49°29' E 000°07'0 0.0
2017-Jan-17 07:33N 49°29' E 000°07'9 8.9
2017-Jan-17 06:34N 49°35' W 000°03'4 3.7
2017-Jan-17 05:34N 49°38' W 000°07'1413.9
2017-Jan-17 04:34N 49°46' W 000°24'1515.1
2017-Jan-17 03:33N 50°01' W 000°21'3313.9
2017-Jan-17 01:11N 50°30' W 000°48'914.5
2017-Jan-17 00:33N 50°38' W 000°55'1312.7
2017-Jan-16 23:33N 50°48' W 001°07'1 1.1
2017-Jan-16 22:34N 50°49' W 001°06'0 0.1
2017-Jan-16 21:34N 50°49' W 001°06'7 7.1
2017-Jan-16 20:34N 50°43' W 000°60'2418.4
2017-Jan-16 19:15N 50°21' W 000°44'1520.7
2017-Jan-16 18:32N 50°08' W 000°33'1920.0
2017-Jan-16 17:33N 49°50' W 000°21'2120.7
2017-Jan-16 16:33N 49°33' W 000°02'7 7.0
2017-Jan-16 15:34N 49°29' E 000°07'0 0.0
2017-Jan-16 14:34N 49°29' E 000°07'0 0.0
2017-Jan-16 13:33N 49°29' E 000°07'0 0.0
2017-Jan-16 12:34N 49°29' E 000°07'0 0.0
2017-Jan-16 11:34N 49°29' E 000°07'0 0.0
2017-Jan-16 10:34N 49°29' E 000°07'0 0.0
2017-Jan-16 09:33N 49°29' E 000°07'0 0.0
2017-Jan-16 08:34N 49°29' E 000°07'0 0.0
2017-Jan-16 07:34N 49°29' E 000°07'9 8.7
2017-Jan-16 06:33N 49°35' W 000°03'4 4.0
2017-Jan-16 05:33N 49°39' W 000°04'9 9.5
2017-Jan-16 04:33N 49°47' W 000°13'1413.7
2017-Jan-16 03:33N 49°59' W 000°24'3414.3
2017-Jan-16 01:10N 50°29' W 000°48'914.9
2017-Jan-16 00:33N 50°37' W 000°54'1312.8
2017-Jan-15 23:33N 50°47' W 001°06'1 1.4
2017-Jan-15 22:33N 50°49' W 001°06'0 0.0
2017-Jan-15 21:33N 50°49' W 001°06'7 7.4
2017-Jan-15 20:33N 50°43' W 000°59'1919.3
2017-Jan-15 19:33N 50°26' W 000°43'2019.9
2017-Jan-15 18:33N 50°08' W 000°29'2120.8
2017-Jan-15 17:33N 49°49' W 000°15'2121.1
2017-Jan-15 16:33N 49°31' E 000°01'4 4.4
2017-Jan-15 15:33N 49°29' E 000°07'0 0.0
2017-Jan-15 14:34N 49°29' E 000°07'0 0.0
2017-Jan-15 13:33N 49°29' E 000°07'0 0.0
2017-Jan-15 12:34N 49°29' E 000°07'0 0.0
2017-Jan-15 11:33N 49°29' E 000°07'0 0.0
2017-Jan-15 10:33N 49°29' E 000°07'0 0.0
2017-Jan-15 09:34N 49°29' E 000°07'0 0.0
2017-Jan-15 08:33N 49°29' E 000°07'0 0.2
2017-Jan-15 07:34N 49°29' E 000°06'1312.7
2017-Jan-15 06:33N 49°39' W 000°06'1616.2
2017-Jan-15 05:33N 49°53' W 000°18'1110.7
2017-Jan-15 04:33N 50°02' W 000°27'9 9.2
2017-Jan-15 03:33N 50°10' W 000°35'19 9.6
2017-Jan-15 01:32N 50°28' W 000°47'1010.3
2017-Jan-15 00:33N 50°37' W 000°54'1010.5
2017-Jan-14 23:33N 50°45' W 001°05'4 4.2
2017-Jan-14 22:33N 50°49' W 001°06'0 0.0
2017-Jan-14 21:33N 50°49' W 001°06'7 6.8
2017-Jan-14 20:33N 50°43' W 000°60'1918.5
2017-Jan-14 19:33N 50°27' W 000°46'2019.4
2017-Jan-14 18:32N 50°10' W 000°30'1919.8
2017-Jan-14 17:34N 49°52' W 000°17'2120.8
2017-Jan-14 16:33N 49°34' W 000°02'7 7.3
2017-Jan-14 15:33N 49°29' E 000°07'0 0.0
2017-Jan-14 14:33N 49°29' E 000°07'0 0.0
2017-Jan-14 13:33N 49°29' E 000°07'0 0.0
2017-Jan-14 12:33N 49°29' E 000°07'0 0.0
2017-Jan-14 11:33N 49°29' E 000°07'0 0.0
2017-Jan-14 10:33N 49°29' E 000°07'0 0.0
2017-Jan-14 09:33N 49°29' E 000°07'0 0.0
2017-Jan-14 08:33N 49°29' E 000°07'0 0.0
2017-Jan-14 07:33N 49°29' E 000°07'9 8.7
2017-Jan-14 06:34N 49°35' W 000°03'1515.1
2017-Jan-14 05:34N 49°49' W 000°13'1514.5
2017-Jan-14 04:34N 50°02' W 000°24'5410.8
2017-Jan-13 23:33N 50°49' W 001°06'0 0.0
2017-Jan-13 22:33N 50°49' W 001°06'0 0.0
2017-Jan-13 21:33N 50°49' W 001°06'1 0.8
2017-Jan-13 20:33N 50°48' W 001°07'1212.3
2017-Jan-13 19:34N 50°39' W 000°54'1 0.9
2017-Jan-13 18:33N 50°40' W 000°55'1010.0
2017-Jan-13 17:34N 50°47' W 001°06'2 1.8
2017-Jan-13 16:33N 50°49' W 001°06'5 5.0
2017-Jan-13 15:34N 50°44' W 001°03'1919.2
2017-Jan-13 14:33N 50°28' W 000°45'2119.2
2017-Jan-13 13:26N 50°09' W 000°29'1719.0
2017-Jan-13 12:34N 49°55' W 000°17'2020.0
2017-Jan-13 11:34N 49°37' W 000°03'1010.1
2017-Jan-13 10:33N 49°29' E 000°07'0 0.0
2017-Jan-13 09:33N 49°29' E 000°07'0 0.0
2017-Jan-13 08:33N 49°29' E 000°07'0 0.0
2017-Jan-13 07:34N 49°29' E 000°07'8 8.0
2017-Jan-13 06:33N 49°35' W 000°02'1111.3
2017-Jan-13 05:34N 49°45' W 000°09'1413.8
2017-Jan-13 04:34N 49°57' W 000°20'1313.2
2017-Jan-13 03:34N 50°08' W 000°30'2613.0
2017-Jan-13 01:33N 50°31' W 000°49'1312.7
2017-Jan-13 00:33N 50°42' W 000°59'8 7.8
2017-Jan-12 23:33N 50°49' W 001°06'0 0.0
2017-Jan-12 22:34N 50°49' W 001°06'0 0.0
2017-Jan-12 21:33N 50°49' W 001°06'9 9.4
2017-Jan-12 20:33N 50°41' W 000°57'3819.0
2017-Jan-12 18:32N 50°07' W 000°29'1818.7
2017-Jan-12 17:33N 49°51' W 000°16'2020.3
2017-Jan-12 16:33N 49°33' W 000°01'6 6.5
2017-Jan-12 15:33N 49°29' E 000°07'0 0.0
2017-Jan-12 14:33N 49°29' E 000°07'0 0.0
2017-Jan-12 13:33N 49°29' E 000°07'0 0.0
2017-Jan-12 12:33N 49°29' E 000°07'0 0.0
2017-Jan-12 11:33N 49°29' E 000°07'0 0.0
2017-Jan-12 10:33N 49°29' E 000°07'0 0.0
2017-Jan-12 09:33N 49°29' E 000°07'0 0.0
2017-Jan-12 08:33N 49°29' E 000°07'0 0.0
2017-Jan-12 07:33N 49°29' E 000°07'7 7.3
2017-Jan-12 06:33N 49°34' W 000°02'1111.5
2017-Jan-12 05:33N 49°44' W 000°10'1211.7
2017-Jan-12 04:33N 49°54' W 000°19'1212.1
2017-Jan-12 03:33N 50°05' W 000°28'2914.5
2017-Jan-12 01:32N 50°31' W 000°48'1313.3
2017-Jan-12 00:33N 50°42' W 000°59'8 7.8
2017-Jan-11 23:33N 50°49' W 001°06'0 0.0
2017-Jan-11 22:33N 50°49' W 001°06'0 0.0
2017-Jan-11 21:34N 50°49' W 001°06'9 9.4
2017-Jan-11 20:34N 50°41' W 000°57'2920.5
2017-Jan-11 19:09N 50°15' W 000°37'1219.9
2017-Jan-11 18:33N 50°04' W 000°29'1919.5
2017-Jan-11 17:33N 49°47' W 000°14'2019.6
2017-Jan-11 16:33N 49°31' E 000°01'4 3.9
2017-Jan-11 15:33N 49°29' E 000°07'0 0.0
2017-Jan-11 14:33N 49°29' E 000°07'0 0.0
2017-Jan-11 13:33N 49°29' E 000°07'0 0.0
2017-Jan-11 12:33N 49°29' E 000°07'0 0.0
2017-Jan-11 11:33N 49°29' E 000°07'0 0.0
2017-Jan-11 10:33N 49°29' E 000°07'0 0.0
2017-Jan-11 09:33N 49°29' E 000°07'0 0.0
2017-Jan-11 08:33N 49°29' E 000°07'0 0.0
2017-Jan-11 07:33N 49°29' E 000°07'8 8.4
2017-Jan-11 06:33N 49°35' W 000°02'3 3.0
2017-Jan-11 05:34N 49°37' W 000°06'1010.2
2017-Jan-11 04:33N 49°47' W 000°12'1615.5
2017-Jan-11 03:33N 50°00' W 000°23'1514.9
2017-Jan-11 02:33N 50°13' W 000°35'1614.8
2017-Jan-11 01:29N 50°27' W 000°48'1414.7
2017-Jan-11 00:33N 50°39' W 000°56'1111.5
2017-Jan-10 23:33N 50°49' W 001°07'1 0.5
2017-Jan-10 22:33N 50°49' W 001°06'0 0.0
2017-Jan-10 21:33N 50°49' W 001°06'6 6.0
2017-Jan-10 20:34N 50°43' W 001°02'4220.5
2017-Jan-10 18:32N 50°07' W 000°29'2020.4
2017-Jan-10 17:33N 49°50' W 000°15'2020.3
2017-Jan-10 16:33N 49°32' E 000°00'5 5.2
2017-Jan-10 15:33N 49°29' E 000°07'0 0.0
2017-Jan-10 14:33N 49°29' E 000°07'0 0.0
2017-Jan-10 13:33N 49°29' E 000°07'0 0.0
2017-Jan-10 12:33N 49°29' E 000°07'0 0.0
2017-Jan-10 11:33N 49°29' E 000°07'0 0.0
2017-Jan-10 10:34N 49°29' E 000°07'0 0.0
2017-Jan-10 09:33N 49°29' E 000°07'0 0.0
2017-Jan-10 08:33N 49°29' E 000°07'0 0.0
2017-Jan-10 07:33N 49°29' E 000°07'8 8.2
2017-Jan-10 06:34N 49°35' W 000°02'1010.1
2017-Jan-10 05:33N 49°43' W 000°10'1010.1
2017-Jan-10 04:34N 49°53' W 000°17'1010.3
2017-Jan-10 03:33N 50°02' W 000°25'3014.3
2017-Jan-10 01:27N 50°28' W 000°47'1213.3
2017-Jan-10 00:34N 50°39' W 000°55'1212.1
2017-Jan-09 23:34N 50°48' W 001°07'1 0.8
2017-Jan-09 22:34N 50°49' W 001°06'0 0.1
2017-Jan-09 21:34N 50°49' W 001°06'8 7.6
2017-Jan-09 20:33N 50°42' W 001°01'1918.6
2017-Jan-09 19:33N 50°27' W 000°43'2120.2
2017-Jan-09 18:30N 50°08' W 000°28'1919.7
2017-Jan-09 17:33N 49°52' W 000°14'2020.3
2017-Jan-09 16:33N 49°33' W 000°01'7 6.5
2017-Jan-09 15:33N 49°29' E 000°07'0 0.0
2017-Jan-09 14:33N 49°29' E 000°07'0 0.0
2017-Jan-09 13:33N 49°29' E 000°07'0 0.0
2017-Jan-09 12:33N 49°29' E 000°07'0 0.0
2017-Jan-09 11:33N 49°29' E 000°07'0 0.0
2017-Jan-09 10:33N 49°29' E 000°07'0 0.0
2017-Jan-09 09:33N 49°29' E 000°07'0 0.0
2017-Jan-09 08:33N 49°29' E 000°07'0 0.0
2017-Jan-09 07:33N 49°29' E 000°07'8 8.3
2017-Jan-09 06:34N 49°35' W 000°03'4 4.0
2017-Jan-09 05:34N 49°38' W 000°05'1212.2
2017-Jan-09 04:33N 49°49' W 000°14'1514.7
2017-Jan-09 03:33N 50°02' W 000°26'2114.1
2017-Jan-09 02:05N 50°20' W 000°40'813.7
2017-Jan-09 01:29N 50°28' W 000°46'1313.4
2017-Jan-09 00:33N 50°39' W 000°55'1211.8
2017-Jan-08 23:33N 50°48' W 001°07'1 1.0
2017-Jan-08 22:33N 50°49' W 001°06'0 0.0
2017-Jan-08 21:33N 50°49' W 001°06'7 6.9
2017-Jan-08 20:34N 50°43' W 000°60'1919.2
2017-Jan-08 19:33N 50°27' W 000°43'2620.8
2017-Jan-08 18:19N 50°04' W 000°25'1620.7
2017-Jan-08 17:34N 49°50' W 000°14'2120.9
2017-Jan-08 16:33N 49°31' E 000°01'5 4.6
2017-Jan-08 15:33N 49°29' E 000°07'0 0.0
2017-Jan-08 14:33N 49°29' E 000°07'0 0.0
2017-Jan-08 13:33N 49°29' E 000°07'0 0.0
2017-Jan-08 12:33N 49°29' E 000°07'0 0.0
2017-Jan-08 11:33N 49°29' E 000°07'0 0.0
2017-Jan-08 10:33N 49°29' E 000°07'0 0.0
2017-Jan-08 09:33N 49°29' E 000°07'0 0.0
2017-Jan-08 08:33N 49°29' E 000°07'0 0.0
2017-Jan-08 07:33N 49°29' E 000°07'9 8.5
2017-Jan-08 06:33N 49°35' W 000°03'3 3.4
2017-Jan-08 05:34N 49°38' W 000°05'7 7.3
2017-Jan-08 04:33N 49°45' W 000°10'1514.8
2017-Jan-08 03:34N 49°58' W 000°21'  
Track history (hours):
 
Tides and Currents Weather Stations Pressure Air Temp Water Temp Dewpoint Dewpoint Depression Visibility Wind Speed Wind Dir Waves Ship Positions

Etretat

Last reported at 2017-Jan-18 03:33 UTC. Time now 2017-Jan-18 04:15 UTC.
Position N 49°58' W 000°27'.

Length 187 m; draft 6 m.

Type: Ship. MMSI: 228022900.

Date/timePositionNaut miles runAvg speedWind from/ knotsBaromVisibWave heightAir tempDewpointWater temp
2017-Jan-18 03:33N 49°58' W 000°27'3514.4
2017-Jan-18 01:07N 50°30' W 000°48'814.6
2017-Jan-18 00:33N 50°38' W 000°54'1312.7
2017-Jan-17 23:34N 50°48' W 001°07'1 1.1
2017-Jan-17 22:34N 50°49' W 001°06'0 0.0
2017-Jan-17 21:34N 50°49' W 001°06'6 6.4
2017-Jan-17 20:33N 50°43' W 001°01'2019.8
2017-Jan-17 19:32N 50°26' W 000°43'2020.7
2017-Jan-17 18:33N 50°08' W 000°30'2120.7
2017-Jan-17 17:33N 49°49' W 000°17'2121.1
2017-Jan-17 16:33N 49°31' E 000°01'4 4.5
2017-Jan-17 15:33N 49°29' E 000°07'0 0.0
2017-Jan-17 14:33N 49°29' E 000°07'0 0.0
2017-Jan-17 13:33N 49°29' E 000°07'0 0.0
2017-Jan-17 12:33N 49°29' E 000°07'0 0.0
2017-Jan-17 11:33N 49°29' E 000°07'0 0.0
2017-Jan-17 10:33N 49°29' E 000°07'0 0.0
2017-Jan-17 09:33N 49°29' E 000°07'0 0.0
2017-Jan-17 08:33N 49°29' E 000°07'0 0.0
2017-Jan-17 07:33N 49°29' E 000°07'9 8.9
2017-Jan-17 06:34N 49°35' W 000°03'4 3.7
2017-Jan-17 05:34N 49°38' W 000°07'1413.9
2017-Jan-17 04:34N 49°46' W 000°24'1515.1
2017-Jan-17 03:33N 50°01' W 000°21'3313.9
2017-Jan-17 01:11N 50°30' W 000°48'914.5
2017-Jan-17 00:33N 50°38' W 000°55'1312.7
2017-Jan-16 23:33N 50°48' W 001°07'1 1.1
2017-Jan-16 22:34N 50°49' W 001°06'0 0.1
2017-Jan-16 21:34N 50°49' W 001°06'7 7.1
2017-Jan-16 20:34N 50°43' W 000°60'2418.4
2017-Jan-16 19:15N 50°21' W 000°44'1520.7
2017-Jan-16 18:32N 50°08' W 000°33'1920.0
2017-Jan-16 17:33N 49°50' W 000°21'2120.7
2017-Jan-16 16:33N 49°33' W 000°02'7 7.0
2017-Jan-16 15:34N 49°29' E 000°07'0 0.0
2017-Jan-16 14:34N 49°29' E 000°07'0 0.0
2017-Jan-16 13:33N 49°29' E 000°07'0 0.0
2017-Jan-16 12:34N 49°29' E 000°07'0 0.0
2017-Jan-16 11:34N 49°29' E 000°07'0 0.0
2017-Jan-16 10:34N 49°29' E 000°07'0 0.0
2017-Jan-16 09:33N 49°29' E 000°07'0 0.0
2017-Jan-16 08:34N 49°29' E 000°07'0 0.0
2017-Jan-16 07:34N 49°29' E 000°07'9 8.7
2017-Jan-16 06:33N 49°35' W 000°03'4 4.0
2017-Jan-16 05:33N 49°39' W 000°04'9 9.5
2017-Jan-16 04:33N 49°47' W 000°13'1413.7
2017-Jan-16 03:33N 49°59' W 000°24'3414.3
2017-Jan-16 01:10N 50°29' W 000°48'914.9
2017-Jan-16 00:33N 50°37' W 000°54'1312.8
2017-Jan-15 23:33N 50°47' W 001°06'1 1.4
2017-Jan-15 22:33N 50°49' W 001°06'0 0.0
2017-Jan-15 21:33N 50°49' W 001°06'7 7.4
2017-Jan-15 20:33N 50°43' W 000°59'1919.3
2017-Jan-15 19:33N 50°26' W 000°43'2019.9
2017-Jan-15 18:33N 50°08' W 000°29'2120.8
2017-Jan-15 17:33N 49°49' W 000°15'2121.1
2017-Jan-15 16:33N 49°31' E 000°01'4 4.4
2017-Jan-15 15:33N 49°29' E 000°07'0 0.0
2017-Jan-15 14:34N 49°29' E 000°07'0 0.0
2017-Jan-15 13:33N 49°29' E 000°07'0 0.0
2017-Jan-15 12:34N 49°29' E 000°07'0 0.0
2017-Jan-15 11:33N 49°29' E 000°07'0 0.0
2017-Jan-15 10:33N 49°29' E 000°07'0 0.0
2017-Jan-15 09:34N 49°29' E 000°07'0 0.0
2017-Jan-15 08:33N 49°29' E 000°07'0 0.2
2017-Jan-15 07:34N 49°29' E 000°06'1312.7
2017-Jan-15 06:33N 49°39' W 000°06'1616.2
2017-Jan-15 05:33N 49°53' W 000°18'1110.7
2017-Jan-15 04:33N 50°02' W 000°27'9 9.2
2017-Jan-15 03:33N 50°10' W 000°35'19 9.6
2017-Jan-15 01:32N 50°28' W 000°47'1010.3
2017-Jan-15 00:33N 50°37' W 000°54'1010.5
2017-Jan-14 23:33N 50°45' W 001°05'4 4.2
2017-Jan-14 22:33N 50°49' W 001°06'0 0.0
2017-Jan-14 21:33N 50°49' W 001°06'7 6.8
2017-Jan-14 20:33N 50°43' W 000°60'1918.5
2017-Jan-14 19:33N 50°27' W 000°46'2019.4
2017-Jan-14 18:32N 50°10' W 000°30'1919.8
2017-Jan-14 17:34N 49°52' W 000°17'2120.8
2017-Jan-14 16:33N 49°34' W 000°02'7 7.3
2017-Jan-14 15:33N 49°29' E 000°07'0 0.0
2017-Jan-14 14:33N 49°29' E 000°07'0 0.0
2017-Jan-14 13:33N 49°29' E 000°07'0 0.0
2017-Jan-14 12:33N 49°29' E 000°07'0 0.0
2017-Jan-14 11:33N 49°29' E 000°07'0 0.0
2017-Jan-14 10:33N 49°29' E 000°07'0 0.0
2017-Jan-14 09:33N 49°29' E 000°07'0 0.0
2017-Jan-14 08:33N 49°29' E 000°07'0 0.0
2017-Jan-14 07:33N 49°29' E 000°07'9 8.7
2017-Jan-14 06:34N 49°35' W 000°03'1515.1
2017-Jan-14 05:34N 49°49' W 000°13'1514.5
2017-Jan-14 04:34N 50°02' W 000°24'5410.8
2017-Jan-13 23:33N 50°49' W 001°06'0 0.0
2017-Jan-13 22:33N 50°49' W 001°06'0 0.0
2017-Jan-13 21:33N 50°49' W 001°06'1 0.8
2017-Jan-13 20:33N 50°48' W 001°07'1212.3
2017-Jan-13 19:34N 50°39' W 000°54'1 0.9
2017-Jan-13 18:33N 50°40' W 000°55'1010.0
2017-Jan-13 17:34N 50°47' W 001°06'2 1.8
2017-Jan-13 16:33N 50°49' W 001°06'5 5.0
2017-Jan-13 15:34N 50°44' W 001°03'1919.2
2017-Jan-13 14:33N 50°28' W 000°45'2119.2
2017-Jan-13 13:26N 50°09' W 000°29'1719.0
2017-Jan-13 12:34N 49°55' W 000°17'2020.0
2017-Jan-13 11:34N 49°37' W 000°03'1010.1
2017-Jan-13 10:33N 49°29' E 000°07'0 0.0
2017-Jan-13 09:33N 49°29' E 000°07'0 0.0
2017-Jan-13 08:33N 49°29' E 000°07'0 0.0
2017-Jan-13 07:34N 49°29' E 000°07'8 8.0
2017-Jan-13 06:33N 49°35' W 000°02'1111.3
2017-Jan-13 05:34N 49°45' W 000°09'1413.8
2017-Jan-13 04:34N 49°57' W 000°20'1313.2
2017-Jan-13 03:34N 50°08' W 000°30'2613.0
2017-Jan-13 01:33N 50°31' W 000°49'1312.7
2017-Jan-13 00:33N 50°42' W 000°59'8 7.8
2017-Jan-12 23:33N 50°49' W 001°06'0 0.0
2017-Jan-12 22:34N 50°49' W 001°06'0 0.0
2017-Jan-12 21:33N 50°49' W 001°06'9 9.4
2017-Jan-12 20:33N 50°41' W 000°57'3819.0
2017-Jan-12 18:32N 50°07' W 000°29'1818.7
2017-Jan-12 17:33N 49°51' W 000°16'2020.3
2017-Jan-12 16:33N 49°33' W 000°01'6 6.5
2017-Jan-12 15:33N 49°29' E 000°07'0 0.0
2017-Jan-12 14:33N 49°29' E 000°07'0 0.0
2017-Jan-12 13:33N 49°29' E 000°07'0 0.0
2017-Jan-12 12:33N 49°29' E 000°07'0 0.0
2017-Jan-12 11:33N 49°29' E 000°07'0 0.0
2017-Jan-12 10:33N 49°29' E 000°07'0 0.0
2017-Jan-12 09:33N 49°29' E 000°07'0 0.0
2017-Jan-12 08:33N 49°29' E 000°07'0 0.0
2017-Jan-12 07:33N 49°29' E 000°07'7 7.3
2017-Jan-12 06:33N 49°34' W 000°02'1111.5
2017-Jan-12 05:33N 49°44' W 000°10'1211.7
2017-Jan-12 04:33N 49°54' W 000°19'1212.1
2017-Jan-12 03:33N 50°05' W 000°28'2914.5
2017-Jan-12 01:32N 50°31' W 000°48'1313.3
2017-Jan-12 00:33N 50°42' W 000°59'8 7.8
2017-Jan-11 23:33N 50°49' W 001°06'0 0.0
2017-Jan-11 22:33N 50°49' W 001°06'0 0.0
2017-Jan-11 21:34N 50°49' W 001°06'9 9.4
2017-Jan-11 20:34N 50°41' W 000°57'2920.5
2017-Jan-11 19:09N 50°15' W 000°37'1219.9
2017-Jan-11 18:33N 50°04' W 000°29'1919.5
2017-Jan-11 17:33N 49°47' W 000°14'2019.6
2017-Jan-11 16:33N 49°31' E 000°01'4 3.9
2017-Jan-11 15:33N 49°29' E 000°07'0 0.0
2017-Jan-11 14:33N 49°29' E 000°07'0 0.0
2017-Jan-11 13:33N 49°29' E 000°07'0 0.0
2017-Jan-11 12:33N 49°29' E 000°07'0 0.0
2017-Jan-11 11:33N 49°29' E 000°07'0 0.0
2017-Jan-11 10:33N 49°29' E 000°07'0 0.0
2017-Jan-11 09:33N 49°29' E 000°07'0 0.0
2017-Jan-11 08:33N 49°29' E 000°07'0 0.0
2017-Jan-11 07:33N 49°29' E 000°07'8 8.4
2017-Jan-11 06:33N 49°35' W 000°02'3 3.0
2017-Jan-11 05:34N 49°37' W 000°06'1010.2
2017-Jan-11 04:33N 49°47' W 000°12'1615.5
2017-Jan-11 03:33N 50°00' W 000°23'1514.9
2017-Jan-11 02:33N 50°13' W 000°35'1614.8
2017-Jan-11 01:29N 50°27' W 000°48'1414.7
2017-Jan-11 00:33N 50°39' W 000°56'1111.5
2017-Jan-10 23:33N 50°49' W 001°07'1 0.5
2017-Jan-10 22:33N 50°49' W 001°06'0 0.0
2017-Jan-10 21:33N 50°49' W 001°06'6 6.0
2017-Jan-10 20:34N 50°43' W 001°02'4220.5
2017-Jan-10 18:32N 50°07' W 000°29'2020.4
2017-Jan-10 17:33N 49°50' W 000°15'2020.3
2017-Jan-10 16:33N 49°32' E 000°00'5 5.2
2017-Jan-10 15:33N 49°29' E 000°07'0 0.0
2017-Jan-10 14:33N 49°29' E 000°07'0 0.0
2017-Jan-10 13:33N 49°29' E 000°07'0 0.0
2017-Jan-10 12:33N 49°29' E 000°07'0 0.0
2017-Jan-10 11:33N 49°29' E 000°07'0 0.0
2017-Jan-10 10:34N 49°29' E 000°07'0 0.0
2017-Jan-10 09:33N 49°29' E 000°07'0 0.0
2017-Jan-10 08:33N 49°29' E 000°07'0 0.0
2017-Jan-10 07:33N 49°29' E 000°07'8 8.2
2017-Jan-10 06:34N 49°35' W 000°02'1010.1
2017-Jan-10 05:33N 49°43' W 000°10'1010.1
2017-Jan-10 04:34N 49°53' W 000°17'1010.3
2017-Jan-10 03:33N 50°02' W 000°25'3014.3
2017-Jan-10 01:27N 50°28' W 000°47'1213.3
2017-Jan-10 00:34N 50°39' W 000°55'1212.1
2017-Jan-09 23:34N 50°48' W 001°07'1 0.8
2017-Jan-09 22:34N 50°49' W 001°06'0 0.1
2017-Jan-09 21:34N 50°49' W 001°06'8 7.6
2017-Jan-09 20:33N 50°42' W 001°01'1918.6
2017-Jan-09 19:33N 50°27' W 000°43'2120.2
2017-Jan-09 18:30N 50°08' W 000°28'1919.7
2017-Jan-09 17:33N 49°52' W 000°14'2020.3
2017-Jan-09 16:33N 49°33' W 000°01'7 6.5
2017-Jan-09 15:33N 49°29' E 000°07'0 0.0
2017-Jan-09 14:33N 49°29' E 000°07'0 0.0
2017-Jan-09 13:33N 49°29' E 000°07'0 0.0
2017-Jan-09 12:33N 49°29' E 000°07'0 0.0
2017-Jan-09 11:33N 49°29' E 000°07'0 0.0
2017-Jan-09 10:33N 49°29' E 000°07'0 0.0
2017-Jan-09 09:33N 49°29' E 000°07'0 0.0
2017-Jan-09 08:33N 49°29' E 000°07'0 0.0
2017-Jan-09 07:33N 49°29' E 000°07'8 8.3
2017-Jan-09 06:34N 49°35' W 000°03'4 4.0
2017-Jan-09 05:34N 49°38' W 000°05'1212.2
2017-Jan-09 04:33N 49°49' W 000°14'1514.7
2017-Jan-09 03:33N 50°02' W 000°26'2114.1
2017-Jan-09 02:05N 50°20' W 000°40'813.7
2017-Jan-09 01:29N 50°28' W 000°46'1313.4
2017-Jan-09 00:33N 50°39' W 000°55'1211.8
2017-Jan-08 23:33N 50°48' W 001°07'1 1.0
2017-Jan-08 22:33N 50°49' W 001°06'0 0.0
2017-Jan-08 21:33N 50°49' W 001°06'7 6.9
2017-Jan-08 20:34N 50°43' W 000°60'1919.2
2017-Jan-08 19:33N 50°27' W 000°43'2620.8
2017-Jan-08 18:19N 50°04' W 000°25'1620.7
2017-Jan-08 17:34N 49°50' W 000°14'2120.9
2017-Jan-08 16:33N 49°31' E 000°01'5 4.6
2017-Jan-08 15:33N 49°29' E 000°07'0 0.0
2017-Jan-08 14:33N 49°29' E 000°07'0 0.0
2017-Jan-08 13:33N 49°29' E 000°07'0 0.0
2017-Jan-08 12:33N 49°29' E 000°07'0 0.0
2017-Jan-08 11:33N 49°29' E 000°07'0 0.0
2017-Jan-08 10:33N 49°29' E 000°07'0 0.0
2017-Jan-08 09:33N 49°29' E 000°07'0 0.0
2017-Jan-08 08:33N 49°29' E 000°07'0 0.0
2017-Jan-08 07:33N 49°29' E 000°07'9 8.5
2017-Jan-08 06:33N 49°35' W 000°03'3 3.4
2017-Jan-08 05:34N 49°38' W 000°05'7 7.3
2017-Jan-08 04:33N 49°45' W 000°10'1514.8
2017-Jan-08 03:34N 49°58' W 000°21'  

Dump ship's entire track history